Rhinelander, WI (54501)

4:16 PM CDT on September 04, 2015 (GMT -0500)
Rhinelander CW5781 | | Change Station
CLOSE
Current Station
Personal Weather Station
Location: Rhinelander, WI
Elevation: 1520 ft
Nearby Weather Stations

Elev 1520 ft 45.64 °N, 89.39 °W | Updated 6 seconds ago

Clear
Clear
83.8 °F
Feels Like 87 °F
N
1.0
Wind Variable Wind from South
Gusts 3.0 mph

Today
High -- | Low -- °F
--% Chance of Precip.
Yesterday
High -- | Low -- °F
Precip. -- in
6:21 AM 7:30 PM
Waning Gibbous, 56% visible
Pressure 30.03 in
Visibility 10.0 miles
Clouds Clear
Heat Index 87 °F
Dew Point 69 °F
Humidity 61%
Rainfall 0.00 in
Snow Depth Not available.
UV 4 out of 12
Pollen 9.80 out of 12
Air Quality Not available.
Flu Activity Not available.
METAR KRHI 042053Z AUTO 10006KT 10SM CLR 28/17 A3005 RMK AO2 SLP168 T02780172 58011
Pressure 30.03 in
Visibility 10.0 miles
Clouds Clear
Heat Index 87 °F
Dew Point 69 °F
Humidity 61%
Rainfall 0.00 in
Snow Depth Not available.
UV 4 out of 12
Pollen 9.80 out of 12
Air Quality Not available.
Flu Activity Not available.
METAR KRHI 042053Z AUTO 10006KT 10SM CLR 28/17 A3005 RMK AO2 SLP168 T02780172 58011

10-Day Weather Forecast

×

Almanac

Astronomy

Sep. 04, 2015 Rise Set
Actual Time
Civil Twilight
Nautical Twilight
Astronomical Twilight
Moon
Length of Visible Light
Length of Day
Tomorrow will be .
, % of the Moon is Illuminated

Today's Extremes

State Highs State Lows

Community

WunderPhotos

Upload Photos

1,852,296 photos uploaded!

WunderBlogs® & News

Nearby

Air Quality

  Air Quality AQ Index Pollutant
Not available.

Snow Depth

Station Depth Elevation

Earthquake Activity

City Distance Mag. Time & Date
Minimum magnitude displayed is 2.5.

Coastal Water Temperatures

Place Temperature

Stations

Nearby Weather Stations

Station Location Temp. Windchill Dew Point Humidity Wind Precip. Elev Updated Type